createdAt,value
2017-08-08T00:02:17.181Z,16.50
2017-08-08T00:04:43.201Z,16.50
2017-08-08T00:07:09.240Z,16.40
2017-08-08T00:09:42.881Z,16.30
2017-08-08T00:12:08.949Z,16.30
2017-08-08T00:14:34.981Z,16.30
2017-08-08T00:17:01.018Z,16.30
2017-08-08T00:19:27.046Z,16.30
2017-08-08T00:21:53.088Z,16.20
2017-08-08T00:24:19.108Z,16.20
2017-08-08T00:26:45.156Z,16.10
2017-08-08T00:29:11.195Z,16.10
2017-08-08T00:31:37.237Z,16.10
2017-08-08T00:34:03.265Z,16.00
2017-08-08T00:36:29.300Z,15.80
2017-08-08T00:38:55.346Z,15.70
2017-08-08T00:41:22.146Z,15.50
2017-08-08T00:43:48.178Z,15.50
2017-08-08T00:46:14.217Z,15.40
2017-08-08T00:48:40.262Z,15.40
2017-08-08T00:51:06.305Z,15.40
2017-08-08T00:53:32.372Z,15.30
2017-08-08T00:55:58.389Z,15.30
2017-08-08T00:58:24.438Z,15.30
2017-08-08T01:00:50.457Z,15.20
2017-08-08T01:03:16.494Z,15.30
2017-08-08T01:05:42.528Z,15.30
2017-08-08T01:08:08.573Z,15.30
2017-08-08T01:10:34.582Z,15.20
2017-08-08T01:13:00.633Z,15.10
2017-08-08T01:15:26.664Z,14.90
2017-08-08T01:17:52.704Z,14.90
2017-08-08T01:20:18.745Z,14.80
2017-08-08T01:22:45.515Z,14.60
2017-08-08T01:25:11.565Z,14.60
2017-08-08T01:27:37.579Z,14.60
2017-08-08T01:30:03.629Z,14.60
2017-08-08T01:32:29.935Z,14.60
2017-08-08T01:34:56.000Z,14.60
2017-08-08T01:37:22.045Z,14.60
2017-08-08T01:39:48.131Z,14.60
2017-08-08T01:42:14.929Z,14.30
2017-08-08T01:44:40.957Z,14.30
2017-08-08T01:47:07.000Z,14.30
2017-08-08T01:49:33.032Z,14.20
2017-08-08T01:51:59.084Z,14.30
2017-08-08T01:54:25.113Z,14.40
2017-08-08T01:56:51.160Z,14.30
2017-08-08T01:59:17.197Z,14.40
2017-08-08T02:01:43.236Z,14.40
2017-08-08T02:04:09.271Z,14.40
2017-08-08T02:06:35.301Z,14.40
2017-08-08T02:09:01.335Z,14.40
2017-08-08T02:11:27.428Z,14.40
2017-08-08T02:13:53.453Z,14.30
2017-08-08T02:16:19.497Z,14.10
2017-08-08T02:18:45.525Z,14.10
2017-08-08T02:21:12.318Z,13.90
2017-08-08T02:23:38.345Z,13.90
2017-08-08T02:26:04.390Z,13.90
2017-08-08T02:28:31.164Z,13.70
2017-08-08T02:30:57.234Z,13.70
2017-08-08T02:33:23.277Z,13.70
2017-08-08T02:35:49.360Z,13.70
2017-08-08T02:38:15.564Z,13.70
2017-08-08T02:40:42.320Z,13.70
2017-08-08T02:43:08.370Z,13.70
2017-08-08T02:45:34.393Z,13.80
2017-08-08T02:48:00.425Z,13.80
2017-08-08T02:50:27.192Z,13.90
2017-08-08T02:52:53.233Z,13.90
2017-08-08T02:55:19.276Z,13.90
2017-08-08T02:57:45.318Z,13.90
2017-08-08T03:00:11.345Z,14.00
2017-08-08T03:02:37.426Z,14.00
2017-08-08T03:05:03.441Z,14.00
2017-08-08T03:07:29.509Z,14.10
2017-08-08T03:09:55.540Z,14.20
2017-08-08T03:12:21.602Z,14.20
2017-08-08T03:14:47.629Z,14.30
2017-08-08T03:17:13.669Z,14.30
2017-08-08T03:19:39.697Z,14.30
2017-08-08T03:22:05.735Z,14.30
2017-08-08T03:24:31.766Z,14.30
2017-08-08T03:26:57.862Z,14.30
2017-08-08T03:29:23.890Z,14.30
2017-08-08T03:31:49.947Z,14.40
2017-08-08T03:34:15.988Z,14.40
2017-08-08T03:36:42.034Z,14.30
2017-08-08T03:39:08.053Z,14.30
2017-08-08T03:41:34.074Z,14.40
2017-08-08T03:44:00.877Z,14.30
2017-08-08T03:46:26.897Z,14.30
2017-08-08T03:48:52.940Z,14.30
2017-08-08T03:51:18.971Z,14.40
2017-08-08T03:53:52.304Z,14.30
2017-08-08T03:56:19.072Z,14.40
2017-08-08T03:58:45.134Z,14.40
2017-08-08T04:01:11.164Z,14.40
2017-08-08T04:03:37.961Z,14.30
2017-08-08T04:06:03.990Z,14.40
2017-08-08T04:08:30.774Z,14.40
2017-08-08T04:10:56.840Z,14.40
2017-08-08T04:13:23.627Z,14.40
2017-08-08T04:15:49.658Z,14.40
2017-08-08T04:18:15.682Z,14.40
2017-08-08T04:20:42.465Z,14.40
2017-08-08T04:23:08.494Z,14.40
2017-08-08T04:25:34.534Z,14.40
2017-08-08T04:28:01.294Z,14.50
2017-08-08T04:30:27.342Z,14.50
2017-08-08T04:32:53.372Z,14.40
2017-08-08T04:35:19.409Z,14.40
2017-08-08T04:37:45.429Z,14.40
2017-08-08T04:40:11.492Z,14.50
2017-08-08T04:42:37.517Z,14.50
2017-08-08T04:45:03.553Z,14.50
2017-08-08T04:47:29.577Z,14.50
2017-08-08T04:49:55.647Z,14.50
2017-08-08T04:52:22.413Z,14.60
2017-08-08T04:54:48.451Z,14.60
2017-08-08T04:57:14.465Z,14.70
2017-08-08T04:59:40.549Z,14.70
2017-08-08T05:02:06.577Z,14.80
2017-08-08T05:04:32.617Z,14.80
2017-08-08T05:06:58.738Z,14.90
2017-08-08T05:09:25.523Z,15.00
2017-08-08T05:11:51.578Z,15.00
2017-08-08T05:14:17.606Z,15.00
2017-08-08T05:16:44.377Z,15.10
2017-08-08T05:19:10.397Z,15.10
2017-08-08T05:21:36.438Z,15.20
2017-08-08T05:24:02.452Z,15.20
2017-08-08T05:26:29.225Z,15.30
2017-08-08T05:28:55.289Z,15.30
2017-08-08T05:31:21.321Z,15.40
2017-08-08T05:33:47.374Z,15.50
2017-08-08T05:36:13.433Z,15.50
2017-08-08T05:38:40.203Z,15.70
2017-08-08T05:41:06.241Z,15.70
2017-08-08T05:43:32.261Z,15.80
2017-08-08T05:45:58.300Z,15.90
2017-08-08T05:48:24.343Z,16.00
2017-08-08T05:50:50.384Z,16.00
2017-08-08T05:53:16.401Z,16.10
2017-08-08T05:55:42.449Z,16.40
2017-08-08T05:58:08.468Z,16.60
2017-08-08T06:00:34.526Z,16.80
2017-08-08T06:03:00.572Z,17.00
2017-08-08T06:05:26.608Z,17.20
2017-08-08T06:07:52.629Z,17.30
2017-08-08T06:10:18.661Z,17.40
2017-08-08T06:12:44.693Z,17.60
2017-08-08T06:15:11.488Z,17.80
2017-08-08T06:17:37.528Z,17.80
2017-08-08T06:20:03.549Z,17.90
2017-08-08T06:22:30.322Z,17.90
2017-08-08T06:24:56.341Z,17.90
2017-08-08T06:27:22.377Z,18.00
2017-08-08T06:29:48.388Z,18.10
2017-08-08T06:32:14.417Z,18.20
2017-08-08T06:34:41.168Z,18.50
2017-08-08T06:37:07.205Z,18.40
2017-08-08T06:39:33.225Z,18.60
2017-08-08T06:41:59.278Z,18.80
2017-08-08T06:44:26.032Z,18.70
2017-08-08T06:46:52.057Z,18.60
2017-08-08T06:49:18.073Z,18.60
2017-08-08T06:51:44.110Z,18.70
2017-08-08T06:54:10.125Z,18.80
2017-08-08T06:56:36.160Z,18.90
2017-08-08T06:59:02.913Z,19.10
2017-08-08T07:01:28.959Z,19.10
2017-08-08T07:03:54.977Z,19.20
2017-08-08T07:06:21.000Z,19.10
2017-08-08T07:08:47.049Z,19.20
2017-08-08T07:11:13.106Z,19.30
2017-08-08T07:13:40.633Z,19.40
2017-08-08T07:16:06.645Z,19.40
2017-08-08T07:18:32.681Z,19.50
2017-08-08T07:20:58.696Z,19.50
2017-08-08T07:23:24.735Z,19.60
2017-08-08T07:25:50.752Z,19.70
2017-08-08T07:28:16.790Z,19.80
2017-08-08T07:30:42.829Z,20.00
2017-08-08T07:33:08.874Z,20.10
2017-08-08T07:35:35.637Z,20.30
2017-08-08T07:38:01.701Z,20.30
2017-08-08T07:40:28.453Z,20.50
2017-08-08T07:42:54.468Z,20.50
2017-08-08T07:45:20.508Z,20.50
2017-08-08T07:47:46.568Z,20.50
2017-08-08T07:50:13.354Z,20.60
2017-08-08T07:52:39.377Z,20.60
2017-08-08T07:55:05.422Z,20.70
2017-08-08T07:57:31.449Z,20.80
2017-08-08T07:59:57.485Z,20.70
2017-08-08T08:02:23.495Z,20.80
2017-08-08T08:04:49.526Z,20.80
2017-08-08T08:07:15.540Z,20.80
2017-08-08T08:09:41.593Z,20.80
2017-08-08T08:12:07.628Z,20.90
2017-08-08T08:14:33.660Z,21.00
2017-08-08T08:16:59.685Z,21.00
2017-08-08T08:19:25.722Z,21.00
2017-08-08T08:21:51.736Z,21.00
2017-08-08T08:24:18.514Z,21.20
2017-08-08T08:26:44.560Z,21.20
2017-08-08T08:29:11.342Z,21.50
2017-08-08T08:31:37.357Z,21.50
2017-08-08T08:34:03.389Z,21.60
2017-08-08T08:36:29.428Z,21.70
2017-08-08T08:38:55.445Z,21.90
2017-08-08T08:41:21.477Z,22.00
2017-08-08T08:43:47.493Z,22.10
2017-08-08T08:46:13.522Z,22.20
2017-08-08T08:48:39.533Z,22.10
2017-08-08T08:51:05.578Z,22.00
2017-08-08T08:53:32.342Z,22.00
2017-08-08T08:55:58.369Z,22.00
2017-08-08T08:58:24.389Z,22.00
2017-08-08T09:00:50.430Z,22.10
2017-08-08T09:03:17.205Z,22.10
2017-08-08T09:05:43.232Z,22.10
2017-08-08T09:08:09.253Z,22.10
2017-08-08T09:10:35.305Z,22.10
2017-08-08T09:13:02.088Z,22.30
2017-08-08T09:15:28.121Z,22.30
2017-08-08T09:17:54.134Z,22.50
2017-08-08T09:20:20.177Z,22.70
2017-08-08T09:22:46.238Z,22.80
2017-08-08T09:25:12.293Z,22.90
2017-08-08T09:27:38.317Z,22.90
2017-08-08T09:30:04.342Z,22.90
2017-08-08T09:32:30.376Z,22.90
2017-08-08T09:34:56.408Z,22.90
2017-08-08T09:37:23.165Z,23.00
2017-08-08T09:39:49.181Z,23.00
2017-08-08T09:42:15.214Z,23.00
2017-08-08T09:44:41.241Z,23.20
2017-08-08T09:47:07.273Z,23.40
2017-08-08T09:49:33.298Z,23.60
2017-08-08T09:52:00.077Z,23.90
2017-08-08T09:54:26.089Z,23.80
2017-08-08T09:56:52.128Z,23.90
2017-08-08T09:59:18.146Z,23.90
2017-08-08T10:01:44.198Z,24.00
2017-08-08T10:04:10.218Z,24.00
2017-08-08T10:06:36.245Z,24.00
2017-08-08T10:09:02.288Z,24.10
2017-08-08T10:11:28.351Z,24.10
2017-08-08T10:13:54.372Z,24.20
2017-08-08T10:16:20.398Z,24.20
2017-08-08T10:18:46.429Z,24.10
2017-08-08T10:21:12.456Z,24.10
2017-08-08T10:23:39.212Z,24.50
2017-08-08T10:26:05.240Z,24.50
2017-08-08T10:28:31.255Z,24.40
2017-08-08T10:30:57.280Z,24.50
2017-08-08T10:33:23.288Z,24.50
2017-08-08T10:35:49.353Z,24.60
2017-08-08T10:38:15.370Z,24.90
2017-08-08T10:40:41.390Z,25.00
2017-08-08T10:43:07.427Z,25.10
2017-08-08T10:45:33.441Z,25.20
2017-08-08T10:47:59.480Z,25.30
2017-08-08T10:50:26.250Z,25.40
2017-08-08T10:52:52.287Z,25.40
2017-08-08T10:55:18.309Z,25.60
2017-08-08T10:57:44.374Z,25.80
2017-08-08T11:00:10.402Z,25.90
2017-08-08T11:02:36.457Z,26.00
2017-08-08T11:05:03.222Z,26.00
2017-08-08T11:07:29.246Z,26.00
2017-08-08T11:09:55.292Z,26.20
2017-08-08T11:12:21.329Z,26.40
2017-08-08T11:14:48.077Z,26.80
2017-08-08T11:17:14.093Z,26.80
2017-08-08T11:19:40.153Z,27.00
2017-08-08T11:22:06.178Z,27.30
2017-08-08T11:24:32.974Z,26.80
2017-08-08T11:26:58.983Z,26.80
2017-08-08T11:29:25.022Z,26.90
2017-08-08T11:31:51.781Z,26.90
2017-08-08T11:34:17.821Z,26.90
2017-08-08T11:36:43.839Z,27.20
2017-08-08T11:39:09.873Z,27.40
2017-08-08T11:41:35.889Z,27.40
2017-08-08T11:44:01.930Z,27.50
2017-08-08T11:46:27.946Z,27.50
2017-08-08T11:48:53.987Z,27.30
2017-08-08T11:51:19.997Z,27.40
2017-08-08T11:53:46.041Z,27.30
2017-08-08T11:56:12.811Z,27.50
2017-08-08T11:58:38.838Z,27.50
2017-08-08T12:01:04.893Z,27.80
2017-08-08T12:03:31.674Z,28.10
2017-08-08T12:05:57.725Z,28.10
2017-08-08T12:08:23.744Z,28.10
2017-08-08T12:10:49.889Z,28.20
2017-08-08T12:13:15.909Z,28.40
2017-08-08T12:15:41.942Z,28.50
2017-08-08T12:18:07.957Z,28.70
2017-08-08T12:20:34.006Z,29.10
2017-08-08T12:23:00.764Z,29.50
2017-08-08T12:25:26.829Z,29.40
2017-08-08T12:27:53.612Z,29.20
2017-08-08T12:30:19.633Z,29.20
2017-08-08T12:32:45.748Z,29.10
2017-08-08T12:35:11.779Z,28.90
2017-08-08T12:37:37.793Z,28.90
2017-08-08T12:40:03.862Z,29.00
2017-08-08T12:42:29.877Z,28.90
2017-08-08T12:44:55.889Z,28.80
2017-08-08T12:47:21.925Z,28.80
2017-08-08T12:49:47.937Z,28.80
2017-08-08T12:52:13.979Z,28.80
2017-08-08T12:54:40.734Z,28.60
2017-08-08T12:57:06.773Z,28.60
2017-08-08T12:59:32.820Z,28.40
2017-08-08T13:01:59.579Z,28.60
2017-08-08T13:04:25.614Z,28.60
2017-08-08T13:06:51.657Z,28.60
2017-08-08T13:09:17.686Z,28.50
2017-08-08T13:11:44.481Z,28.40
2017-08-08T13:14:10.505Z,28.40
2017-08-08T13:16:36.530Z,28.60
2017-08-08T13:19:02.566Z,29.10
2017-08-08T13:21:30.121Z,29.70
2017-08-08T13:23:56.175Z,29.70
2017-08-08T13:26:22.238Z,29.60
2017-08-08T13:28:48.284Z,29.50
2017-08-08T13:31:14.326Z,29.40
2017-08-08T13:33:41.093Z,28.90
2017-08-08T13:36:07.122Z,28.90
2017-08-08T13:38:33.177Z,28.70
2017-08-08T13:40:59.945Z,28.30
2017-08-08T13:43:25.985Z,28.30
2017-08-08T13:45:52.004Z,28.20
2017-08-08T13:48:18.072Z,28.10
2017-08-08T13:50:44.094Z,27.80
2017-08-08T13:53:10.137Z,27.70
2017-08-08T13:55:36.157Z,27.50
2017-08-08T13:58:02.186Z,27.50
2017-08-08T14:00:28.970Z,27.40
2017-08-08T14:02:54.994Z,27.40
2017-08-08T14:05:21.037Z,27.30
2017-08-08T14:07:47.802Z,26.90
2017-08-08T14:10:13.891Z,26.90
2017-08-08T14:12:39.906Z,26.80
2017-08-08T14:15:05.951Z,26.70
2017-08-08T14:17:31.980Z,26.60
2017-08-08T14:19:58.017Z,26.60
2017-08-08T14:22:24.769Z,26.70
2017-08-08T14:24:50.810Z,26.70
2017-08-08T14:27:16.845Z,26.80
2017-08-08T14:29:42.881Z,26.90
2017-08-08T14:32:08.906Z,27.00
2017-08-08T14:34:34.981Z,26.90
2017-08-08T14:37:00.998Z,26.80
2017-08-08T14:39:27.074Z,26.60
2017-08-08T14:41:53.099Z,26.40
2017-08-08T14:44:19.129Z,26.30
2017-08-08T14:46:45.897Z,26.00
2017-08-08T14:49:11.926Z,26.00
2017-08-08T14:51:37.954Z,25.90
2017-08-08T14:54:03.986Z,25.80
2017-08-08T14:56:30.768Z,25.50
2017-08-08T14:58:56.790Z,25.50
2017-08-08T15:01:22.825Z,25.40
2017-08-08T15:03:48.843Z,25.50
2017-08-08T15:06:15.628Z,25.50
2017-08-08T15:08:41.666Z,25.50
2017-08-08T15:11:07.722Z,25.30
2017-08-08T15:13:33.755Z,25.30
2017-08-08T15:15:59.796Z,25.30
2017-08-08T15:18:25.832Z,25.30
2017-08-08T15:20:51.876Z,25.30
2017-08-08T15:23:17.911Z,25.20
2017-08-08T15:25:43.957Z,25.20
2017-08-08T15:28:10.722Z,25.20
2017-08-08T15:30:36.763Z,25.10
2017-08-08T15:33:02.785Z,25.20
2017-08-08T15:35:28.839Z,25.20
2017-08-08T15:37:54.870Z,25.20
2017-08-08T15:40:20.901Z,25.20
2017-08-08T15:42:47.036Z,25.20
2017-08-08T15:45:13.102Z,25.10
2017-08-08T15:47:39.133Z,25.00
2017-08-08T15:50:05.173Z,24.90
2017-08-08T15:52:31.253Z,24.80
2017-08-08T15:54:57.294Z,24.70
2017-08-08T15:57:23.338Z,24.60
2017-08-08T15:59:49.378Z,24.50
2017-08-08T16:02:15.406Z,24.50
2017-08-08T16:04:41.444Z,24.40
2017-08-08T16:07:07.470Z,24.40
2017-08-08T16:09:34.282Z,24.50
2017-08-08T16:12:00.442Z,24.40
2017-08-08T16:14:26.462Z,24.50
2017-08-08T16:16:53.423Z,24.50
2017-08-08T16:19:19.437Z,24.50
2017-08-08T16:21:45.473Z,24.40
2017-08-08T16:24:12.237Z,24.20
2017-08-08T16:26:38.298Z,24.20
2017-08-08T16:29:04.329Z,24.10
2017-08-08T16:31:31.098Z,24.00
2017-08-08T16:33:57.126Z,23.90
2017-08-08T16:36:23.180Z,23.90
2017-08-08T16:38:49.233Z,23.90
2017-08-08T16:41:15.248Z,23.80
2017-08-08T16:43:41.286Z,23.60
2017-08-08T16:46:07.335Z,23.50
2017-08-08T16:48:33.353Z,23.20
2017-08-08T16:50:59.397Z,23.00
2017-08-08T16:53:25.412Z,22.90
2017-08-08T16:55:51.430Z,22.70
2017-08-08T16:58:17.468Z,22.50
2017-08-08T17:00:43.490Z,22.40
2017-08-08T17:03:09.533Z,22.20
2017-08-08T17:05:35.558Z,22.00
2017-08-08T17:08:01.601Z,21.70
2017-08-08T17:10:28.521Z,21.30
2017-08-08T17:12:54.588Z,21.30
2017-08-08T17:15:20.629Z,21.30
2017-08-08T17:17:46.729Z,21.20
2017-08-08T17:20:12.756Z,21.10
2017-08-08T17:22:38.808Z,21.10
2017-08-08T17:25:04.822Z,21.00
2017-08-08T17:27:30.878Z,20.90
2017-08-08T17:29:56.906Z,20.80
2017-08-08T17:32:22.965Z,20.70
2017-08-08T17:34:48.986Z,20.60
2017-08-08T17:37:15.012Z,20.60
2017-08-08T17:39:41.050Z,20.50
2017-08-08T17:42:07.073Z,20.40
2017-08-08T17:44:33.109Z,20.30
2017-08-08T17:46:59.130Z,20.10
2017-08-08T17:49:25.174Z,20.00
2017-08-08T17:51:51.192Z,20.10
2017-08-08T17:54:17.230Z,20.10
2017-08-08T17:56:44.001Z,20.20
2017-08-08T17:59:10.108Z,20.20
2017-08-08T18:01:36.133Z,20.20
2017-08-08T18:04:02.167Z,20.20
2017-08-08T18:06:28.194Z,20.30
2017-08-08T18:08:54.237Z,20.30
2017-08-08T18:11:20.274Z,20.40
2017-08-08T18:13:46.316Z,20.40
2017-08-08T18:16:12.334Z,20.40
2017-08-08T18:18:38.368Z,20.50
2017-08-08T18:21:04.397Z,20.70
2017-08-08T18:23:30.445Z,20.70
2017-08-08T18:25:57.300Z,20.80
2017-08-08T18:28:24.072Z,21.00
2017-08-08T18:30:50.126Z,21.00
2017-08-08T18:33:16.187Z,21.10
2017-08-08T18:35:42.286Z,21.10
2017-08-08T18:38:08.326Z,21.20
2017-08-08T18:40:34.358Z,21.10
2017-08-08T18:43:00.393Z,21.10
2017-08-08T18:45:27.165Z,21.00
2017-08-08T18:47:53.202Z,20.90
2017-08-08T18:50:19.252Z,20.90
2017-08-08T18:52:45.282Z,20.80
2017-08-08T18:55:11.324Z,20.70
2017-08-08T18:57:37.357Z,20.60
2017-08-08T19:00:03.412Z,20.50
2017-08-08T19:02:29.434Z,20.50
2017-08-08T19:04:55.461Z,20.40
2017-08-08T19:07:21.503Z,20.40
2017-08-08T19:09:47.577Z,20.30
2017-08-08T19:12:13.617Z,20.30
2017-08-08T19:14:39.696Z,20.20
2017-08-08T19:17:05.714Z,20.10
2017-08-08T19:19:31.738Z,20.10
2017-08-08T19:21:57.800Z,20.00
2017-08-08T19:24:30.881Z,19.90
2017-08-08T19:26:56.921Z,19.90
2017-08-08T19:29:22.948Z,19.70
2017-08-08T19:31:48.992Z,19.60
2017-08-08T19:34:15.021Z,19.60
2017-08-08T19:36:41.058Z,19.60
2017-08-08T19:39:07.085Z,19.50
2017-08-08T19:41:33.145Z,19.50
2017-08-08T19:43:59.190Z,19.50
2017-08-08T19:46:25.235Z,19.50
2017-08-08T19:48:51.301Z,19.50
2017-08-08T19:51:17.374Z,19.50
2017-08-08T19:53:44.254Z,19.50
2017-08-08T19:56:10.279Z,19.50
2017-08-08T19:58:36.334Z,19.50
2017-08-08T20:01:02.397Z,19.50
2017-08-08T20:03:28.434Z,19.40
2017-08-08T20:05:55.216Z,19.30
2017-08-08T20:08:21.265Z,19.30
2017-08-08T20:10:47.402Z,19.30
2017-08-08T20:13:13.540Z,19.30
2017-08-08T20:15:39.733Z,19.20
2017-08-08T20:18:05.756Z,19.10
2017-08-08T20:20:31.810Z,19.10
2017-08-08T20:22:57.857Z,19.10
2017-08-08T20:25:24.641Z,19.10
2017-08-08T20:27:50.735Z,19.00
2017-08-08T20:30:16.802Z,19.00
2017-08-08T20:32:43.653Z,19.10
2017-08-08T20:35:09.801Z,19.00
2017-08-08T20:37:36.510Z,19.00
2017-08-08T20:40:02.530Z,19.00
2017-08-08T20:42:28.592Z,19.00
2017-08-08T20:44:54.610Z,19.10
2017-08-08T20:47:21.385Z,19.10
2017-08-08T20:49:47.438Z,19.00
2017-08-08T20:52:14.237Z,19.00
2017-08-08T20:54:40.286Z,19.00
2017-08-08T20:57:06.304Z,19.00
2017-08-08T20:59:32.362Z,18.90
2017-08-08T21:01:58.408Z,18.90
2017-08-08T21:04:24.445Z,18.80
2017-08-08T21:06:50.476Z,18.70
2017-08-08T21:09:16.518Z,18.70
2017-08-08T21:11:42.614Z,18.70
2017-08-08T21:14:08.700Z,18.70
2017-08-08T21:16:34.725Z,18.70
2017-08-08T21:19:00.781Z,18.70
2017-08-08T21:21:26.802Z,18.60
2017-08-08T21:23:52.879Z,18.70
2017-08-08T21:26:18.899Z,18.70
2017-08-08T21:28:45.908Z,18.70
2017-08-08T21:31:11.929Z,18.70
2017-08-08T21:33:37.948Z,18.70
2017-08-08T21:36:04.020Z,18.80
2017-08-08T21:38:30.059Z,18.80
2017-08-08T21:40:56.089Z,18.80
2017-08-08T21:43:22.106Z,18.80
2017-08-08T21:45:48.138Z,18.80
2017-08-08T21:48:14.958Z,18.80
2017-08-08T21:50:41.740Z,18.80
2017-08-08T21:53:07.811Z,18.80
2017-08-08T21:55:34.031Z,18.80
2017-08-08T21:58:00.839Z,18.80
2017-08-08T22:00:26.911Z,18.70
2017-08-08T22:02:53.038Z,18.80
2017-08-08T22:05:19.102Z,18.70
2017-08-08T22:07:45.166Z,18.70
2017-08-08T22:10:11.977Z,18.60
2017-08-08T22:12:38.054Z,18.60
2017-08-08T22:15:04.099Z,18.60
2017-08-08T22:17:30.171Z,18.60
2017-08-08T22:19:56.287Z,18.60
2017-08-08T22:22:22.351Z,18.50
2017-08-08T22:24:48.422Z,18.60
2017-08-08T22:27:14.494Z,18.50
2017-08-08T22:29:41.287Z,18.40
2017-08-08T22:32:07.367Z,18.40
2017-08-08T22:34:33.438Z,18.40
2017-08-08T22:36:59.517Z,18.30
2017-08-08T22:39:25.566Z,18.30
2017-08-08T22:41:51.657Z,18.30
2017-08-08T22:44:18.442Z,18.30
2017-08-08T22:46:44.582Z,18.30
2017-08-08T22:49:11.375Z,18.40
2017-08-08T22:51:37.430Z,18.30
2017-08-08T22:54:03.499Z,18.40
2017-08-08T22:56:30.302Z,18.40
2017-08-08T22:58:56.385Z,18.40
2017-08-08T23:01:22.443Z,18.40
2017-08-08T23:03:48.536Z,18.40
2017-08-08T23:06:14.617Z,18.40
2017-08-08T23:08:40.674Z,18.30
2017-08-08T23:11:07.502Z,18.20
2017-08-08T23:13:33.575Z,18.20
2017-08-08T23:15:59.653Z,18.20
2017-08-08T23:18:25.698Z,18.10
2017-08-08T23:20:51.770Z,18.10
2017-08-08T23:23:17.823Z,18.00
2017-08-08T23:25:43.887Z,18.00
2017-08-08T23:28:09.950Z,17.90
2017-08-08T23:30:36.014Z,17.90
2017-08-08T23:33:02.820Z,17.90
2017-08-08T23:35:28.890Z,17.90
2017-08-08T23:37:54.967Z,17.80
2017-08-08T23:40:21.046Z,17.80
2017-08-08T23:42:47.140Z,17.80
2017-08-08T23:45:13.260Z,17.80
2017-08-08T23:47:39.319Z,17.70
2017-08-08T23:50:05.371Z,17.70
2017-08-08T23:52:31.446Z,17.70
2017-08-08T23:54:58.243Z,17.60
2017-08-08T23:57:24.408Z,17.60
2017-08-08T23:59:50.461Z,17.60
